sensor_id;sensor_type;location;lat;lon;timestamp;P1;durP1;ratioP1;P2;durP2;ratioP2
34242;SDS011;20504;43.214;27.920;2023-07-13T00:00:37;19.60;;;17.53;;
34242;SDS011;20504;43.214;27.920;2023-07-13T00:03:03;19.05;;;17.25;;
34242;SDS011;20504;43.214;27.920;2023-07-13T00:07:56;24.23;;;17.73;;
34242;SDS011;20504;43.214;27.920;2023-07-13T00:10:21;19.87;;;16.50;;
34242;SDS011;20504;43.214;27.920;2023-07-13T00:12:47;24.40;;;17.55;;
34242;SDS011;20504;43.214;27.920;2023-07-13T00:15:19;21.13;;;16.83;;
34242;SDS011;20504;43.214;27.920;2023-07-13T00:17:51;20.48;;;17.90;;
34242;SDS011;20504;43.214;27.920;2023-07-13T00:20:18;25.35;;;19.35;;
34242;SDS011;20504;43.214;27.920;2023-07-13T00:22:47;22.95;;;17.98;;
34242;SDS011;20504;43.214;27.920;2023-07-13T00:25:14;19.83;;;17.67;;
34242;SDS011;20504;43.214;27.920;2023-07-13T00:27:41;25.70;;;18.58;;
34242;SDS011;20504;43.214;27.920;2023-07-13T00:30:09;25.92;;;18.88;;
34242;SDS011;20504;43.214;27.920;2023-07-13T00:32:35;22.70;;;18.60;;
34242;SDS011;20504;43.214;27.920;2023-07-13T00:35:01;20.73;;;18.02;;
34242;SDS011;20504;43.214;27.920;2023-07-13T00:37:29;20.10;;;17.98;;
34242;SDS011;20504;43.214;27.920;2023-07-13T00:39:55;22.65;;;17.83;;
34242;SDS011;20504;43.214;27.920;2023-07-13T00:42:21;23.57;;;18.43;;
34242;SDS011;20504;43.214;27.920;2023-07-13T00:45:06;29.07;;;19.00;;
34242;SDS011;20504;43.214;27.920;2023-07-13T00:47:41;24.75;;;21.42;;
34242;SDS011;20504;43.214;27.920;2023-07-13T00:50:09;22.25;;;19.90;;
34242;SDS011;20504;43.214;27.920;2023-07-13T00:52:38;25.63;;;20.17;;
34242;SDS011;20504;43.214;27.920;2023-07-13T00:55:06;24.70;;;20.38;;
34242;SDS011;20504;43.214;27.920;2023-07-13T00:57:34;32.80;;;21.58;;
34242;SDS011;20504;43.214;27.920;2023-07-13T01:00:00;24.05;;;20.35;;
34242;SDS011;20504;43.214;27.920;2023-07-13T01:02:35;25.98;;;19.92;;
34242;SDS011;20504;43.214;27.920;2023-07-13T01:05:08;27.15;;;19.45;;
34242;SDS011;20504;43.214;27.920;2023-07-13T01:07:44;22.42;;;19.67;;
34242;SDS011;20504;43.214;27.920;2023-07-13T01:10:12;25.38;;;21.08;;
34242;SDS011;20504;43.214;27.920;2023-07-13T01:12:38;25.40;;;20.75;;
34242;SDS011;20504;43.214;27.920;2023-07-13T01:15:04;29.00;;;20.67;;
34242;SDS011;20504;43.214;27.920;2023-07-13T01:17:31;28.25;;;19.50;;
34242;SDS011;20504;43.214;27.920;2023-07-13T01:19:59;22.42;;;19.73;;
34242;SDS011;20504;43.214;27.920;2023-07-13T01:22:25;24.80;;;20.60;;
34242;SDS011;20504;43.214;27.920;2023-07-13T01:24:52;26.50;;;20.13;;
34242;SDS011;20504;43.214;27.920;2023-07-13T01:27:23;23.30;;;20.13;;
34242;SDS011;20504;43.214;27.920;2023-07-13T01:29:50;22.65;;;20.27;;
34242;SDS011;20504;43.214;27.920;2023-07-13T01:32:21;26.48;;;20.35;;
34242;SDS011;20504;43.214;27.920;2023-07-13T01:34:49;29.92;;;20.13;;
34242;SDS011;20504;43.214;27.920;2023-07-13T01:37:16;24.83;;;20.23;;
34242;SDS011;20504;43.214;27.920;2023-07-13T01:39:42;24.42;;;20.88;;
34242;SDS011;20504;43.214;27.920;2023-07-13T01:42:08;23.90;;;21.42;;
34242;SDS011;20504;43.214;27.920;2023-07-13T01:44:33;24.80;;;20.95;;
34242;SDS011;20504;43.214;27.920;2023-07-13T01:47:00;28.60;;;20.90;;
34242;SDS011;20504;43.214;27.920;2023-07-13T01:49:26;27.30;;;20.10;;
34242;SDS011;20504;43.214;27.920;2023-07-13T01:51:51;26.10;;;20.83;;
34242;SDS011;20504;43.214;27.920;2023-07-13T01:54:17;30.07;;;21.87;;
34242;SDS011;20504;43.214;27.920;2023-07-13T01:56:42;24.80;;;21.27;;
34242;SDS011;20504;43.214;27.920;2023-07-13T01:59:08;28.67;;;21.37;;
34242;SDS011;20504;43.214;27.920;2023-07-13T02:01:34;26.85;;;20.65;;
34242;SDS011;20504;43.214;27.920;2023-07-13T02:03:59;24.57;;;20.53;;
34242;SDS011;20504;43.214;27.920;2023-07-13T02:06:25;26.63;;;21.33;;
34242;SDS011;20504;43.214;27.920;2023-07-13T02:08:52;24.85;;;20.75;;
34242;SDS011;20504;43.214;27.920;2023-07-13T02:11:18;22.38;;;19.85;;
34242;SDS011;20504;43.214;27.920;2023-07-13T02:13:43;28.40;;;19.87;;
34242;SDS011;20504;43.214;27.920;2023-07-13T02:16:09;23.07;;;20.70;;
34242;SDS011;20504;43.214;27.920;2023-07-13T02:18:34;24.52;;;20.15;;
34242;SDS011;20504;43.214;27.920;2023-07-13T02:21:00;26.03;;;21.77;;
34242;SDS011;20504;43.214;27.920;2023-07-13T02:23:25;34.27;;;30.63;;
34242;SDS011;20504;43.214;27.920;2023-07-13T02:26:00;26.23;;;21.43;;
34242;SDS011;20504;43.214;27.920;2023-07-13T02:28:27;26.95;;;20.45;;
34242;SDS011;20504;43.214;27.920;2023-07-13T02:30:53;22.47;;;20.23;;
34242;SDS011;20504;43.214;27.920;2023-07-13T02:33:18;25.40;;;20.87;;
34242;SDS011;20504;43.214;27.920;2023-07-13T02:35:44;26.77;;;20.73;;
34242;SDS011;20504;43.214;27.920;2023-07-13T02:38:09;24.27;;;20.90;;
34242;SDS011;20504;43.214;27.920;2023-07-13T02:40:35;29.03;;;20.30;;
34242;SDS011;20504;43.214;27.920;2023-07-13T02:43:01;23.77;;;20.43;;
34242;SDS011;20504;43.214;27.920;2023-07-13T02:45:31;24.40;;;19.73;;
34242;SDS011;20504;43.214;27.920;2023-07-13T02:47:57;24.50;;;19.87;;
34242;SDS011;20504;43.214;27.920;2023-07-13T02:50:22;23.03;;;19.63;;
34242;SDS011;20504;43.214;27.920;2023-07-13T02:52:48;25.33;;;19.20;;
34242;SDS011;20504;43.214;27.920;2023-07-13T02:55:14;23.27;;;20.00;;
34242;SDS011;20504;43.214;27.920;2023-07-13T02:57:39;26.67;;;21.47;;
34242;SDS011;20504;43.214;27.920;2023-07-13T03:00:06;29.30;;;20.23;;
34242;SDS011;20504;43.214;27.920;2023-07-13T03:02:33;22.58;;;19.40;;
34242;SDS011;20504;43.214;27.920;2023-07-13T03:04:59;22.67;;;19.35;;
34242;SDS011;20504;43.214;27.920;2023-07-13T03:07:25;25.30;;;18.85;;
34242;SDS011;20504;43.214;27.920;2023-07-13T03:09:57;24.00;;;19.02;;
34242;SDS011;20504;43.214;27.920;2023-07-13T03:12:23;27.13;;;19.90;;
34242;SDS011;20504;43.214;27.920;2023-07-13T03:14:50;24.05;;;20.13;;
34242;SDS011;20504;43.214;27.920;2023-07-13T03:17:16;21.83;;;19.50;;
34242;SDS011;20504;43.214;27.920;2023-07-13T03:19:41;25.13;;;18.93;;
34242;SDS011;20504;43.214;27.920;2023-07-13T03:22:07;25.10;;;19.07;;
34242;SDS011;20504;43.214;27.920;2023-07-13T03:24:33;25.47;;;18.23;;
34242;SDS011;20504;43.214;27.920;2023-07-13T03:27:01;23.73;;;18.42;;
34242;SDS011;20504;43.214;27.920;2023-07-13T03:29:27;23.95;;;17.95;;
34242;SDS011;20504;43.214;27.920;2023-07-13T03:31:52;23.77;;;18.43;;
34242;SDS011;20504;43.214;27.920;2023-07-13T03:34:18;27.53;;;16.73;;
34242;SDS011;20504;43.214;27.920;2023-07-13T03:36:44;20.33;;;17.30;;
34242;SDS011;20504;43.214;27.920;2023-07-13T03:39:09;22.00;;;18.07;;
34242;SDS011;20504;43.214;27.920;2023-07-13T03:41:35;22.53;;;16.73;;
34242;SDS011;20504;43.214;27.920;2023-07-13T03:44:00;24.75;;;16.02;;
34242;SDS011;20504;43.214;27.920;2023-07-13T03:46:26;20.70;;;16.90;;
34242;SDS011;20504;43.214;27.920;2023-07-13T03:48:52;20.27;;;16.35;;
34242;SDS011;20504;43.214;27.920;2023-07-13T03:51:18;18.65;;;16.67;;
34242;SDS011;20504;43.214;27.920;2023-07-13T03:53:44;22.48;;;15.18;;
34242;SDS011;20504;43.214;27.920;2023-07-13T03:56:11;25.42;;;15.82;;
34242;SDS011;20504;43.214;27.920;2023-07-13T03:58:39;18.13;;;14.88;;
34242;SDS011;20504;43.214;27.920;2023-07-13T04:01:07;21.83;;;15.82;;
34242;SDS011;20504;43.214;27.920;2023-07-13T04:03:34;19.45;;;14.90;;
34242;SDS011;20504;43.214;27.920;2023-07-13T04:06:00;23.70;;;15.60;;
34242;SDS011;20504;43.214;27.920;2023-07-13T04:08:27;21.88;;;16.50;;
34242;SDS011;20504;43.214;27.920;2023-07-13T04:10:54;22.30;;;14.73;;
34242;SDS011;20504;43.214;27.920;2023-07-13T04:13:19;16.90;;;15.15;;
34242;SDS011;20504;43.214;27.920;2023-07-13T04:15:45;21.77;;;14.83;;
34242;SDS011;20504;43.214;27.920;2023-07-13T04:18:10;19.13;;;14.50;;
34242;SDS011;20504;43.214;27.920;2023-07-13T04:20:36;23.90;;;14.37;;
34242;SDS011;20504;43.214;27.920;2023-07-13T04:23:02;19.97;;;15.10;;
34242;SDS011;20504;43.214;27.920;2023-07-13T04:25:27;21.25;;;14.15;;
34242;SDS011;20504;43.214;27.920;2023-07-13T04:27:53;18.83;;;15.10;;
34242;SDS011;20504;43.214;27.920;2023-07-13T04:30:19;23.10;;;14.32;;
34242;SDS011;20504;43.214;27.920;2023-07-13T04:32:45;16.52;;;13.13;;
34242;SDS011;20504;43.214;27.920;2023-07-13T04:35:11;17.67;;;14.18;;
34242;SDS011;20504;43.214;27.920;2023-07-13T04:37:37;15.80;;;11.95;;
34242;SDS011;20504;43.214;27.920;2023-07-13T04:40:02;18.10;;;13.13;;
34242;SDS011;20504;43.214;27.920;2023-07-13T04:42:28;14.80;;;12.75;;
34242;SDS011;20504;43.214;27.920;2023-07-13T04:44:54;21.75;;;12.73;;
34242;SDS011;20504;43.214;27.920;2023-07-13T04:47:20;16.93;;;11.50;;
34242;SDS011;20504;43.214;27.920;2023-07-13T04:49:46;14.97;;;11.80;;
34242;SDS011;20504;43.214;27.920;2023-07-13T04:52:11;21.20;;;11.20;;
34242;SDS011;20504;43.214;27.920;2023-07-13T04:54:37;17.25;;;10.93;;
34242;SDS011;20504;43.214;27.920;2023-07-13T04:57:04;16.27;;;12.00;;
34242;SDS011;20504;43.214;27.920;2023-07-13T04:59:33;16.83;;;11.75;;
34242;SDS011;20504;43.214;27.920;2023-07-13T05:01:59;17.55;;;11.38;;
34242;SDS011;20504;43.214;27.920;2023-07-13T05:04:27;18.27;;;11.35;;
34242;SDS011;20504;43.214;27.920;2023-07-13T05:06:52;21.80;;;11.47;;
34242;SDS011;20504;43.214;27.920;2023-07-13T05:09:18;16.53;;;11.87;;
34242;SDS011;20504;43.214;27.920;2023-07-13T05:11:44;19.65;;;11.68;;
34242;SDS011;20504;43.214;27.920;2023-07-13T05:14:10;14.40;;;11.30;;
34242;SDS011;20504;43.214;27.920;2023-07-13T05:16:35;14.90;;;10.95;;
34242;SDS011;20504;43.214;27.920;2023-07-13T05:19:01;15.77;;;11.25;;
34242;SDS011;20504;43.214;27.920;2023-07-13T05:23:53;18.63;;;12.30;;
34242;SDS011;20504;43.214;27.920;2023-07-13T05:26:19;13.43;;;10.40;;
34242;SDS011;20504;43.214;27.920;2023-07-13T05:28:45;20.42;;;11.52;;
34242;SDS011;20504;43.214;27.920;2023-07-13T05:33:37;17.40;;;11.45;;
34242;SDS011;20504;43.214;27.920;2023-07-13T05:36:03;18.23;;;11.40;;
34242;SDS011;20504;43.214;27.920;2023-07-13T05:38:29;13.00;;;10.70;;
34242;SDS011;20504;43.214;27.920;2023-07-13T05:40:55;14.53;;;10.23;;
34242;SDS011;20504;43.214;27.920;2023-07-13T05:43:21;16.17;;;10.70;;
34242;SDS011;20504;43.214;27.920;2023-07-13T05:45:47;21.30;;;11.82;;
34242;SDS011;20504;43.214;27.920;2023-07-13T05:50:39;15.43;;;10.48;;
34242;SDS011;20504;43.214;27.920;2023-07-13T05:55:30;13.90;;;10.40;;
34242;SDS011;20504;43.214;27.920;2023-07-13T05:57:56;15.18;;;11.60;;
34242;SDS011;20504;43.214;27.920;2023-07-13T06:00:23;22.05;;;12.68;;
34242;SDS011;20504;43.214;27.920;2023-07-13T06:02:49;21.58;;;13.65;;
34242;SDS011;20504;43.214;27.920;2023-07-13T06:05:15;16.90;;;11.50;;
34242;SDS011;20504;43.214;27.920;2023-07-13T06:07:41;16.58;;;11.55;;
34242;SDS011;20504;43.214;27.920;2023-07-13T06:10:07;26.33;;;14.13;;
34242;SDS011;20504;43.214;27.920;2023-07-13T06:12:33;21.90;;;12.30;;
34242;SDS011;20504;43.214;27.920;2023-07-13T06:14:58;20.70;;;13.70;;
34242;SDS011;20504;43.214;27.920;2023-07-13T06:17:27;20.00;;;13.90;;
34242;SDS011;20504;43.214;27.920;2023-07-13T06:19:53;17.85;;;12.10;;
34242;SDS011;20504;43.214;27.920;2023-07-13T06:22:19;19.57;;;13.20;;
34242;SDS011;20504;43.214;27.920;2023-07-13T06:24:44;21.10;;;12.67;;
34242;SDS011;20504;43.214;27.920;2023-07-13T06:27:10;20.30;;;12.93;;
34242;SDS011;20504;43.214;27.920;2023-07-13T06:29:35;16.40;;;12.40;;
34242;SDS011;20504;43.214;27.920;2023-07-13T06:32:01;23.17;;;12.67;;
34242;SDS011;20504;43.214;27.920;2023-07-13T06:34:26;16.45;;;12.88;;
34242;SDS011;20504;43.214;27.920;2023-07-13T06:36:52;19.70;;;13.50;;
34242;SDS011;20504;43.214;27.920;2023-07-13T06:39:17;19.42;;;13.00;;
34242;SDS011;20504;43.214;27.920;2023-07-13T06:41:43;16.73;;;12.87;;
34242;SDS011;20504;43.214;27.920;2023-07-13T06:44:08;18.42;;;13.45;;
34242;SDS011;20504;43.214;27.920;2023-07-13T06:46:34;19.40;;;12.63;;
34242;SDS011;20504;43.214;27.920;2023-07-13T06:48:59;22.37;;;12.47;;
34242;SDS011;20504;43.214;27.920;2023-07-13T06:51:25;19.33;;;10.95;;
34242;SDS011;20504;43.214;27.920;2023-07-13T06:53:51;17.25;;;11.90;;
34242;SDS011;20504;43.214;27.920;2023-07-13T06:56:17;14.32;;;11.43;;
34242;SDS011;20504;43.214;27.920;2023-07-13T06:58:42;13.70;;;10.75;;
34242;SDS011;20504;43.214;27.920;2023-07-13T07:01:08;19.92;;;10.88;;
34242;SDS011;20504;43.214;27.920;2023-07-13T07:03:37;14.60;;;11.40;;
34242;SDS011;20504;43.214;27.920;2023-07-13T07:06:07;15.05;;;10.85;;
34242;SDS011;20504;43.214;27.920;2023-07-13T07:09:00;15.68;;;11.52;;
34242;SDS011;20504;43.214;27.920;2023-07-13T07:11:37;15.77;;;11.45;;
34242;SDS011;20504;43.214;27.920;2023-07-13T07:14:05;22.00;;;12.13;;
34242;SDS011;20504;43.214;27.920;2023-07-13T07:16:32;16.27;;;12.23;;
34242;SDS011;20504;43.214;27.920;2023-07-13T07:18:59;16.70;;;12.38;;
34242;SDS011;20504;43.214;27.920;2023-07-13T07:21:24;14.23;;;11.80;;
34242;SDS011;20504;43.214;27.920;2023-07-13T07:26:16;15.65;;;11.60;;
34242;SDS011;20504;43.214;27.920;2023-07-13T07:28:41;15.93;;;11.03;;
34242;SDS011;20504;43.214;27.920;2023-07-13T07:31:07;13.17;;;11.43;;
34242;SDS011;20504;43.214;27.920;2023-07-13T07:33:33;13.90;;;11.75;;
34242;SDS011;20504;43.214;27.920;2023-07-13T07:36:00;17.70;;;11.18;;
34242;SDS011;20504;43.214;27.920;2023-07-13T07:38:26;17.23;;;11.57;;
34242;SDS011;20504;43.214;27.920;2023-07-13T07:40:52;15.27;;;11.02;;
34242;SDS011;20504;43.214;27.920;2023-07-13T07:43:20;15.88;;;11.65;;
34242;SDS011;20504;43.214;27.920;2023-07-13T07:45:47;17.15;;;12.10;;
34242;SDS011;20504;43.214;27.920;2023-07-13T07:48:16;18.30;;;12.07;;
34242;SDS011;20504;43.214;27.920;2023-07-13T07:50:46;14.52;;;11.75;;
34242;SDS011;20504;43.214;27.920;2023-07-13T07:53:12;15.38;;;11.57;;
34242;SDS011;20504;43.214;27.920;2023-07-13T07:55:43;17.83;;;11.38;;
34242;SDS011;20504;43.214;27.920;2023-07-13T07:58:11;14.27;;;11.50;;
34242;SDS011;20504;43.214;27.920;2023-07-13T08:00:39;14.68;;;11.13;;
34242;SDS011;20504;43.214;27.920;2023-07-13T08:03:07;13.43;;;11.30;;
34242;SDS011;20504;43.214;27.920;2023-07-13T08:05:35;16.27;;;10.70;;
34242;SDS011;20504;43.214;27.920;2023-07-13T08:08:03;16.17;;;10.98;;
34242;SDS011;20504;43.214;27.920;2023-07-13T08:10:38;18.02;;;11.15;;
34242;SDS011;20504;43.214;27.920;2023-07-13T08:13:03;11.75;;;10.00;;
34242;SDS011;20504;43.214;27.920;2023-07-13T08:18:06;15.55;;;10.55;;
34242;SDS011;20504;43.214;27.920;2023-07-13T08:20:36;14.35;;;10.57;;
34242;SDS011;20504;43.214;27.920;2023-07-13T08:23:05;14.00;;;11.43;;
34242;SDS011;20504;43.214;27.920;2023-07-13T08:28:02;14.95;;;10.50;;
34242;SDS011;20504;43.214;27.920;2023-07-13T08:30:33;17.15;;;11.10;;
34242;SDS011;20504;43.214;27.920;2023-07-13T08:33:01;13.50;;;11.30;;
34242;SDS011;20504;43.214;27.920;2023-07-13T08:35:36;15.48;;;11.93;;
34242;SDS011;20504;43.214;27.920;2023-07-13T08:38:16;16.88;;;11.50;;
34242;SDS011;20504;43.214;27.920;2023-07-13T08:41:17;18.95;;;13.23;;
34242;SDS011;20504;43.214;27.920;2023-07-13T08:44:56;17.02;;;11.68;;
34242;SDS011;20504;43.214;27.920;2023-07-13T08:47:49;12.98;;;11.15;;
34242;SDS011;20504;43.214;27.920;2023-07-13T08:50:27;14.07;;;10.85;;
34242;SDS011;20504;43.214;27.920;2023-07-13T08:53:00;17.17;;;11.32;;
34242;SDS011;20504;43.214;27.920;2023-07-13T08:55:31;16.02;;;11.07;;
34242;SDS011;20504;43.214;27.920;2023-07-13T08:58:09;15.93;;;10.88;;
34242;SDS011;20504;43.214;27.920;2023-07-13T09:00:43;17.02;;;10.77;;
34242;SDS011;20504;43.214;27.920;2023-07-13T09:03:30;13.45;;;10.90;;
34242;SDS011;20504;43.214;27.920;2023-07-13T09:06:20;14.27;;;10.85;;
34242;SDS011;20504;43.214;27.920;2023-07-13T09:09:06;13.05;;;11.70;;
34242;SDS011;20504;43.214;27.920;2023-07-13T09:11:50;16.73;;;11.10;;
34242;SDS011;20504;43.214;27.920;2023-07-13T09:17:18;16.13;;;11.65;;
34242;SDS011;20504;43.214;27.920;2023-07-13T09:20:03;17.35;;;12.55;;
34242;SDS011;20504;43.214;27.920;2023-07-13T09:22:41;19.35;;;11.63;;
34242;SDS011;20504;43.214;27.920;2023-07-13T09:28:15;12.40;;;11.10;;
34242;SDS011;20504;43.214;27.920;2023-07-13T09:30:52;15.68;;;13.05;;
34242;SDS011;20504;43.214;27.920;2023-07-13T09:33:35;14.88;;;11.65;;
34242;SDS011;20504;43.214;27.920;2023-07-13T09:39:01;15.93;;;12.60;;
34242;SDS011;20504;43.214;27.920;2023-07-13T09:44:10;14.13;;;11.93;;
34242;SDS011;20504;43.214;27.920;2023-07-13T09:46:38;17.48;;;12.65;;
34242;SDS011;20504;43.214;27.920;2023-07-13T09:49:09;16.70;;;12.57;;
34242;SDS011;20504;43.214;27.920;2023-07-13T09:51:36;17.23;;;12.30;;
34242;SDS011;20504;43.214;27.920;2023-07-13T09:54:04;17.17;;;11.82;;
34242;SDS011;20504;43.214;27.920;2023-07-13T09:56:30;17.48;;;12.07;;
34242;SDS011;20504;43.214;27.920;2023-07-13T09:58:56;15.10;;;13.00;;
34242;SDS011;20504;43.214;27.920;2023-07-13T10:01:32;20.00;;;13.10;;
34242;SDS011;20504;43.214;27.920;2023-07-13T10:03:58;16.35;;;12.43;;
34242;SDS011;20504;43.214;27.920;2023-07-13T10:06:24;15.32;;;13.20;;
34242;SDS011;20504;43.214;27.920;2023-07-13T10:08:51;17.30;;;13.05;;
34242;SDS011;20504;43.214;27.920;2023-07-13T10:11:28;24.65;;;13.75;;
34242;SDS011;20504;43.214;27.920;2023-07-13T10:16:34;20.27;;;13.43;;
34242;SDS011;20504;43.214;27.920;2023-07-13T10:19:05;19.52;;;14.27;;
34242;SDS011;20504;43.214;27.920;2023-07-13T10:21:53;19.13;;;13.25;;
34242;SDS011;20504;43.214;27.920;2023-07-13T10:24:22;19.30;;;14.18;;
34242;SDS011;20504;43.214;27.920;2023-07-13T10:26:55;15.75;;;14.10;;
34242;SDS011;20504;43.214;27.920;2023-07-13T10:29:26;15.33;;;13.30;;
34242;SDS011;20504;43.214;27.920;2023-07-13T10:31:54;15.73;;;14.13;;
34242;SDS011;20504;43.214;27.920;2023-07-13T10:34:22;22.90;;;14.93;;
34242;SDS011;20504;43.214;27.920;2023-07-13T10:36:49;20.02;;;14.50;;
34242;SDS011;20504;43.214;27.920;2023-07-13T10:39:18;16.60;;;14.38;;
34242;SDS011;20504;43.214;27.920;2023-07-13T10:41:52;19.80;;;13.70;;
34242;SDS011;20504;43.214;27.920;2023-07-13T10:44:38;19.23;;;14.07;;
34242;SDS011;20504;43.214;27.920;2023-07-13T10:47:06;20.70;;;14.02;;
34242;SDS011;20504;43.214;27.920;2023-07-13T10:49:36;18.77;;;14.68;;
34242;SDS011;20504;43.214;27.920;2023-07-13T10:54:31;16.75;;;14.95;;
34242;SDS011;20504;43.214;27.920;2023-07-13T11:02:28;16.90;;;15.05;;
34242;SDS011;20504;43.214;27.920;2023-07-13T11:04:54;22.75;;;14.57;;
34242;SDS011;20504;43.214;27.920;2023-07-13T11:09:57;19.27;;;14.75;;
34242;SDS011;20504;43.214;27.920;2023-07-13T11:20:08;16.90;;;13.93;;
34242;SDS011;20504;43.214;27.920;2023-07-13T11:22:47;19.30;;;14.82;;
34242;SDS011;20504;43.214;27.920;2023-07-13T11:33:24;24.33;;;14.40;;
34242;SDS011;20504;43.214;27.920;2023-07-13T11:38:38;18.70;;;13.82;;
34242;SDS011;20504;43.214;27.920;2023-07-13T11:41:27;18.42;;;14.10;;
34242;SDS011;20504;43.214;27.920;2023-07-13T11:44:07;14.80;;;13.20;;
34242;SDS011;20504;43.214;27.920;2023-07-13T11:46:37;16.55;;;13.18;;
34242;SDS011;20504;43.214;27.920;2023-07-13T11:51:30;15.20;;;12.82;;
34242;SDS011;20504;43.214;27.920;2023-07-13T11:54:02;15.55;;;13.63;;
34242;SDS011;20504;43.214;27.920;2023-07-13T11:56:44;14.77;;;12.37;;
34242;SDS011;20504;43.214;27.920;2023-07-13T11:59:11;13.55;;;12.18;;
34242;SDS011;20504;43.214;27.920;2023-07-13T12:01:42;19.50;;;12.38;;
34242;SDS011;20504;43.214;27.920;2023-07-13T12:04:22;15.23;;;12.93;;
34242;SDS011;20504;43.214;27.920;2023-07-13T12:06:55;16.48;;;12.57;;
34242;SDS011;20504;43.214;27.920;2023-07-13T12:09:29;14.02;;;12.70;;
34242;SDS011;20504;43.214;27.920;2023-07-13T12:11:56;14.93;;;11.32;;
34242;SDS011;20504;43.214;27.920;2023-07-13T12:14:24;20.90;;;11.95;;
34242;SDS011;20504;43.214;27.920;2023-07-13T12:16:54;13.20;;;11.68;;
34242;SDS011;20504;43.214;27.920;2023-07-13T12:19:27;15.38;;;11.63;;
34242;SDS011;20504;43.214;27.920;2023-07-13T12:21:58;13.98;;;11.55;;
34242;SDS011;20504;43.214;27.920;2023-07-13T12:24:25;18.48;;;12.30;;
34242;SDS011;20504;43.214;27.920;2023-07-13T12:26:53;20.77;;;12.30;;
34242;SDS011;20504;43.214;27.920;2023-07-13T12:29:30;13.52;;;11.93;;
34242;SDS011;20504;43.214;27.920;2023-07-13T12:31:57;13.10;;;11.27;;
34242;SDS011;20504;43.214;27.920;2023-07-13T12:34:23;15.23;;;11.90;;
34242;SDS011;20504;43.214;27.920;2023-07-13T12:36:54;17.15;;;12.82;;
34242;SDS011;20504;43.214;27.920;2023-07-13T12:39:22;15.60;;;11.55;;
34242;SDS011;20504;43.214;27.920;2023-07-13T12:41:49;14.93;;;11.75;;
34242;SDS011;20504;43.214;27.920;2023-07-13T12:44:17;16.42;;;11.85;;
34242;SDS011;20504;43.214;27.920;2023-07-13T12:46:55;13.35;;;11.52;;
34242;SDS011;20504;43.214;27.920;2023-07-13T12:49:32;19.83;;;11.07;;
34242;SDS011;20504;43.214;27.920;2023-07-13T12:52:01;13.10;;;11.35;;
34242;SDS011;20504;43.214;27.920;2023-07-13T12:54:29;13.23;;;10.98;;
34242;SDS011;20504;43.214;27.920;2023-07-13T12:56:56;15.23;;;12.10;;
34242;SDS011;20504;43.214;27.920;2023-07-13T12:59:25;15.57;;;11.35;;
34242;SDS011;20504;43.214;27.920;2023-07-13T13:01:55;17.67;;;10.68;;
34242;SDS011;20504;43.214;27.920;2023-07-13T13:04:20;12.88;;;11.48;;
34242;SDS011;20504;43.214;27.920;2023-07-13T13:06:47;16.27;;;11.38;;
34242;SDS011;20504;43.214;27.920;2023-07-13T13:09:14;13.00;;;10.65;;
34242;SDS011;20504;43.214;27.920;2023-07-13T13:11:43;14.07;;;10.50;;
34242;SDS011;20504;43.214;27.920;2023-07-13T13:14:09;12.43;;;10.80;;
34242;SDS011;20504;43.214;27.920;2023-07-13T13:19:17;14.38;;;11.25;;
34242;SDS011;20504;43.214;27.920;2023-07-13T13:21:53;13.55;;;10.52;;
34242;SDS011;20504;43.214;27.920;2023-07-13T13:24:24;16.73;;;10.60;;
34242;SDS011;20504;43.214;27.920;2023-07-13T13:26:52;13.35;;;10.32;;
34242;SDS011;20504;43.214;27.920;2023-07-13T13:29:21;12.70;;;10.80;;
34242;SDS011;20504;43.214;27.920;2023-07-13T13:31:52;17.50;;;10.60;;
34242;SDS011;20504;43.214;27.920;2023-07-13T13:34:19;12.18;;;10.88;;
34242;SDS011;20504;43.214;27.920;2023-07-13T13:36:46;13.98;;;10.13;;
34242;SDS011;20504;43.214;27.920;2023-07-13T13:39:18;12.05;;;10.73;;
34242;SDS011;20504;43.214;27.920;2023-07-13T13:41:44;19.23;;;12.25;;
34242;SDS011;20504;43.214;27.920;2023-07-13T13:44:09;19.85;;;11.48;;
34242;SDS011;20504;43.214;27.920;2023-07-13T13:46:35;15.40;;;11.05;;
34242;SDS011;20504;43.214;27.920;2023-07-13T13:49:02;12.55;;;10.93;;
34242;SDS011;20504;43.214;27.920;2023-07-13T13:51:27;14.50;;;11.95;;
34242;SDS011;20504;43.214;27.920;2023-07-13T13:53:54;15.75;;;11.65;;
34242;SDS011;20504;43.214;27.920;2023-07-13T13:56:19;14.00;;;12.02;;
34242;SDS011;20504;43.214;27.920;2023-07-13T13:58:46;16.10;;;12.23;;
34242;SDS011;20504;43.214;27.920;2023-07-13T14:01:21;15.98;;;12.90;;
34242;SDS011;20504;43.214;27.920;2023-07-13T14:03:49;13.45;;;12.10;;
34242;SDS011;20504;43.214;27.920;2023-07-13T14:06:16;15.38;;;13.02;;
34242;SDS011;20504;43.214;27.920;2023-07-13T14:08:42;16.17;;;13.57;;
34242;SDS011;20504;43.214;27.920;2023-07-13T14:11:12;23.30;;;13.02;;
34242;SDS011;20504;43.214;27.920;2023-07-13T14:13:47;13.60;;;11.55;;
34242;SDS011;20504;43.214;27.920;2023-07-13T14:16:15;16.10;;;11.85;;
34242;SDS011;20504;43.214;27.920;2023-07-13T14:18:43;17.55;;;12.65;;
34242;SDS011;20504;43.214;27.920;2023-07-13T14:21:13;13.48;;;12.25;;
34242;SDS011;20504;43.214;27.920;2023-07-13T14:23:43;13.40;;;12.00;;
34242;SDS011;20504;43.214;27.920;2023-07-13T14:26:11;15.02;;;11.98;;
34242;SDS011;20504;43.214;27.920;2023-07-13T14:28:38;17.70;;;12.48;;
34242;SDS011;20504;43.214;27.920;2023-07-13T14:31:08;13.32;;;11.48;;
34242;SDS011;20504;43.214;27.920;2023-07-13T14:33:34;13.52;;;12.13;;
34242;SDS011;20504;43.214;27.920;2023-07-13T14:36:00;15.95;;;13.15;;
34242;SDS011;20504;43.214;27.920;2023-07-13T14:38:25;17.73;;;14.00;;
34242;SDS011;20504;43.214;27.920;2023-07-13T14:40:52;16.02;;;12.05;;
34242;SDS011;20504;43.214;27.920;2023-07-13T14:43:17;15.93;;;12.45;;
34242;SDS011;20504;43.214;27.920;2023-07-13T14:45:44;14.23;;;12.27;;
34242;SDS011;20504;43.214;27.920;2023-07-13T14:48:19;14.57;;;12.20;;
34242;SDS011;20504;43.214;27.920;2023-07-13T14:50:49;13.95;;;11.63;;
34242;SDS011;20504;43.214;27.920;2023-07-13T14:53:18;16.38;;;12.45;;
34242;SDS011;20504;43.214;27.920;2023-07-13T14:55:44;13.90;;;12.48;;
34242;SDS011;20504;43.214;27.920;2023-07-13T14:58:09;16.02;;;12.25;;
34242;SDS011;20504;43.214;27.920;2023-07-13T15:00:35;13.57;;;12.32;;
34242;SDS011;20504;43.214;27.920;2023-07-13T15:03:02;17.05;;;13.63;;
34242;SDS011;20504;43.214;27.920;2023-07-13T15:05:30;16.15;;;12.60;;
34242;SDS011;20504;43.214;27.920;2023-07-13T15:07:57;14.95;;;13.35;;
34242;SDS011;20504;43.214;27.920;2023-07-13T15:10:26;19.00;;;13.68;;
34242;SDS011;20504;43.214;27.920;2023-07-13T15:13:00;14.85;;;13.32;;
34242;SDS011;20504;43.214;27.920;2023-07-13T15:15:38;19.48;;;14.23;;
34242;SDS011;20504;43.214;27.920;2023-07-13T15:18:08;15.98;;;14.35;;
34242;SDS011;20504;43.214;27.920;2023-07-13T15:20:36;18.67;;;13.38;;
34242;SDS011;20504;43.214;27.920;2023-07-13T15:23:01;16.15;;;13.35;;
34242;SDS011;20504;43.214;27.920;2023-07-13T15:25:28;17.40;;;14.38;;